Time;durP1;ratioP1;P1;durP2;ratioP2;P2;SDS_P1;SDS_P2;PMS_P1;PMS_P2;Temp;Humidity;BMP_temperature;BMP_pressure;BME280_temperature;BME280_humidity;BME280_pressure;Samples;Min_cycle;Max_cycle;Signal;HPM_P1;HPM_P2
2022/07/29 00:01:53;;;;;;;6.68;2.47;;;21.20;99.90;;;;;;10625208;27;20249;-88
2022/07/29 00:06:56;;;;;;;2.72;1.80;;;21.20;99.90;;;;;;10624914;27;20200;-88
2022/07/29 00:12:01;;;;;;;2.70;2.03;;;21.20;99.90;;;;;;10624431;27;20241;-88
2022/07/29 00:17:03;;;;;;;1.92;1.73;;;21.10;99.90;;;;;;10606120;27;20200;-88
2022/07/29 00:22:06;;;;;;;2.47;2.17;;;21.20;99.90;;;;;;10624213;27;20196;-88
2022/07/29 00:27:08;;;;;;;3.35;2.08;;;21.20;99.90;;;;;;10624487;27;20216;-88
2022/07/29 00:32:11;;;;;;;5.88;2.47;;;21.20;99.90;;;;;;10624305;27;20590;-88
2022/07/29 00:37:13;;;;;;;2.47;1.80;;;21.10;99.90;;;;;;10604812;27;20204;-88
2022/07/29 00:42:16;;;;;;;3.97;2.60;;;21.10;99.90;;;;;;10623468;28;20200;-88
2022/07/29 00:47:19;;;;;;;3.63;2.72;;;21.10;99.90;;;;;;10605551;28;20281;-88
2022/07/29 00:52:21;;;;;;;4.68;2.42;;;21.10;99.90;;;;;;10605282;28;20188;-89
2022/07/29 00:57:24;;;;;;;5.68;2.30;;;21.10;99.90;;;;;;10623472;28;20226;-89
2022/07/29 01:02:26;;;;;;;2.30;2.05;;;21.10;99.90;;;;;;10610801;27;20550;-88
2022/07/29 01:07:30;;;;;;;3.33;2.72;;;21.10;99.90;;;;;;10631826;27;20624;-88
2022/07/29 01:12:34;;;;;;;2.42;2.00;;;21.10;99.90;;;;;;10631696;27;20196;-89
2022/07/29 01:17:51;;;;;;;3.30;2.70;;;21.10;99.90;;;;;;10631455;27;20188;-88
2022/07/29 01:23:13;;;;;;;2.78;2.25;;;21.10;99.90;;;;;;10613052;27;20227;-89
2022/07/29 01:29:01;;;;;;;5.95;2.13;;;21.10;99.90;;;;;;10612669;27;20624;-89
2022/07/29 01:34:16;;;;;;;4.75;2.55;;;21.10;99.90;;;;;;10631030;27;20212;-88
2022/07/29 01:39:32;;;;;;;2.72;2.50;;;21.10;99.90;;;;;;10611764;27;20257;-88
2022/07/29 01:44:41;;;;;;;3.88;2.40;;;21.10;99.90;;;;;;10612055;27;20744;-88
2022/07/29 01:49:50;;;;;;;3.10;2.25;;;21.10;99.90;;;;;;10630351;27;20220;-89
2022/07/29 01:54:58;;;;;;;2.60;2.17;;;21.10;99.90;;;;;;10630221;27;20673;-88
2022/07/29 02:00:03;;;;;;;3.22;2.92;;;21.10;99.90;;;;;;10611990;27;20253;-88
2022/07/29 02:05:17;;;;;;;2.47;2.20;;;21.10;99.90;;;;;;10641175;27;20204;-88
2022/07/29 02:10:23;;;;;;;3.08;2.25;;;21.00;99.90;;;;;;10610574;27;20221;-88
2022/07/29 02:15:30;;;;;;;2.67;2.13;;;21.10;99.90;;;;;;10628798;27;20218;-89
2022/07/29 02:20:33;;;;;;;2.58;2.20;;;21.00;99.90;;;;;;10629152;27;20201;-89
2022/07/29 02:25:37;;;;;;;2.88;2.50;;;21.00;99.90;;;;;;10628764;27;20204;-88
2022/07/29 02:30:43;;;;;;;4.80;2.55;;;21.00;99.90;;;;;;10609379;27;20236;-89
2022/07/29 02:35:47;;;;;;;3.78;2.47;;;21.00;99.90;;;;;;10610814;27;20189;-89
2022/07/29 02:40:51;;;;;;;3.40;2.63;;;21.10;99.90;;;;;;10609323;27;20212;-89
2022/07/29 02:45:56;;;;;;;3.03;2.60;;;21.00;99.90;;;;;;10627869;27;20582;-89
2022/07/29 02:51:06;;;;;;;3.92;2.38;;;21.00;99.90;;;;;;10609704;27;20216;-89
2022/07/29 02:56:14;;;;;;;3.65;2.83;;;21.10;99.90;;;;;;10609107;27;20196;-89
2022/07/29 03:01:22;;;;;;;2.75;2.47;;;21.00;99.90;;;;;;10627562;27;20253;-89
2022/07/29 03:06:27;;;;;;;2.38;2.17;;;21.00;99.90;;;;;;10591709;27;20234;-89
2022/07/29 03:11:41;;;;;;;3.20;2.38;;;21.10;99.90;;;;;;10610143;27;20272;-89
2022/07/29 03:16:53;;;;;;;3.58;2.45;;;21.00;99.90;;;;;;10607957;27;20196;-89
2022/07/29 03:21:57;;;;;;;2.65;2.45;;;21.10;99.90;;;;;;10626867;27;20598;-89
2022/07/29 03:27:00;;;;;;;2.55;2.15;;;21.10;99.90;;;;;;10626772;27;20230;-89
2022/07/29 03:32:05;;;;;;;2.70;2.50;;;21.10;99.90;;;;;;10607817;27;20590;-89
2022/07/29 03:37:10;;;;;;;2.85;2.15;;;21.10;99.90;;;;;;10607502;27;20200;-89
2022/07/29 03:42:15;;;;;;;4.68;2.58;;;21.10;99.90;;;;;;10606962;27;20200;-89
2022/07/29 03:47:23;;;;;;;3.42;2.40;;;21.10;99.90;;;;;;10607544;27;20184;-89
2022/07/29 03:52:46;;;;;;;2.83;2.40;;;21.10;99.90;;;;;;10606299;27;20212;-88
2022/07/29 03:57:50;;;;;;;2.65;2.45;;;21.10;99.90;;;;;;10625138;27;20196;-88
2022/07/29 04:02:52;;;;;;;3.00;2.25;;;21.10;99.90;;;;;;10606629;27;20566;-89
2022/07/29 04:07:55;;;;;;;3.30;2.20;;;21.10;99.90;;;;;;10606192;27;20351;-89
2022/07/29 04:12:59;;;;;;;3.45;2.78;;;21.10;99.90;;;;;;10624848;27;20192;-88
2022/07/29 04:18:02;;;;;;;3.58;2.03;;;21.20;99.90;;;;;;10606892;27;20276;-88
2022/07/29 04:23:05;;;;;;;2.47;2.28;;;21.20;99.90;;;;;;10605306;27;20204;-89
2022/07/29 04:28:08;;;;;;;2.60;2.28;;;21.20;99.90;;;;;;10624393;27;20204;-89
2022/07/29 04:33:11;;;;;;;3.05;2.75;;;21.20;99.90;;;;;;10605999;27;20232;-89
2022/07/29 04:38:14;;;;;;;2.58;2.17;;;21.20;99.90;;;;;;10605359;27;20200;-88
2022/07/29 04:43:18;;;;;;;2.40;2.20;;;21.20;99.90;;;;;;10605521;28;20200;-89
2022/07/29 04:48:23;;;;;;;3.25;2.70;;;21.20;99.90;;;;;;10623007;28;20245;-88
2022/07/29 04:53:30;;;;;;;4.20;2.55;;;21.20;99.90;;;;;;10623022;28;20200;-88
2022/07/29 04:58:34;;;;;;;3.08;2.17;;;21.30;99.90;;;;;;10604543;28;20609;-88
2022/07/29 05:03:37;;;;;;;4.00;2.45;;;21.30;99.90;;;;;;10622965;28;20192;-89
2022/07/29 05:08:39;;;;;;;3.95;2.67;;;21.20;99.90;;;;;;10604246;28;20587;-89
2022/07/29 05:13:43;;;;;;;3.10;2.70;;;21.20;99.90;;;;;;10605233;28;20192;-89
2022/07/29 05:18:48;;;;;;;3.10;2.22;;;21.30;99.90;;;;;;10622843;28;20559;-89
2022/07/29 05:23:50;;;;;;;2.60;2.40;;;21.30;99.90;;;;;;10622499;28;20586;-89
2022/07/29 05:28:54;;;;;;;2.80;2.13;;;21.30;99.90;;;;;;10603942;28;20228;-88
2022/07/29 05:33:56;;;;;;;2.35;2.15;;;21.30;99.90;;;;;;10623478;28;20549;-88
2022/07/29 05:38:59;;;;;;;3.03;2.00;;;21.30;99.90;;;;;;10604274;28;20242;-88
2022/07/29 05:44:01;;;;;;;2.55;2.35;;;21.30;99.90;;;;;;10622300;28;20672;-89
2022/07/29 05:49:06;;;;;;;2.25;2.05;;;21.40;99.90;;;;;;10627942;27;20220;-88
2022/07/29 05:54:08;;;;;;;2.90;2.55;;;21.40;99.90;;;;;;10629612;27;20196;-88
2022/07/29 05:59:11;;;;;;;3.60;2.25;;;21.40;99.90;;;;;;10611076;27;20196;-88
2022/07/29 06:04:19;;;;;;;2.40;2.15;;;21.40;99.90;;;;;;10610228;27;20304;-89
2022/07/29 06:09:22;;;;;;;2.72;2.03;;;21.50;99.90;;;;;;10628730;27;20261;-89
2022/07/29 06:14:26;;;;;;;1.92;1.77;;;21.50;99.90;;;;;;10629301;27;20197;-88
2022/07/29 06:19:28;;;;;;;2.28;2.08;;;21.50;99.90;;;;;;10593722;27;20578;-88
2022/07/29 06:24:31;;;;;;;4.07;1.92;;;21.50;99.90;;;;;;10629044;27;20298;-88
2022/07/29 06:29:33;;;;;;;5.07;1.90;;;21.60;99.90;;;;;;10628966;27;20212;-87
2022/07/29 06:34:36;;;;;;;2.42;1.65;;;21.60;99.90;;;;;;10629879;27;20257;-88
2022/07/29 06:39:39;;;;;;;5.25;2.20;;;21.70;99.90;;;;;;10592763;27;20547;-87
2022/07/29 06:44:42;;;;;;;3.25;1.95;;;21.60;99.90;;;;;;10628456;27;20188;-88
2022/07/29 06:49:45;;;;;;;3.03;2.30;;;21.50;99.90;;;;;;10628010;27;20212;-87
2022/07/29 06:54:48;;;;;;;3.75;2.13;;;21.60;99.90;;;;;;10627510;27;20245;-88
2022/07/29 06:59:50;;;;;;;2.53;2.05;;;21.70;99.90;;;;;;10609249;27;20599;-88
2022/07/29 07:04:53;;;;;;;1.70;1.27;;;21.80;99.90;;;;;;10627274;27;20196;-88
2022/07/29 07:09:55;;;;;;;2.75;2.35;;;21.80;99.90;;;;;;10626984;27;20230;-88
2022/07/29 07:14:58;;;;;;;6.38;2.10;;;21.80;99.90;;;;;;10627037;27;20188;-88
2022/07/29 07:20:00;;;;;;;2.38;2.05;;;22.00;99.90;;;;;;10627006;27;20600;-88
2022/07/29 07:25:03;;;;;;;3.53;2.20;;;22.10;99.90;;;;;;10607801;27;20208;-87
2022/07/29 07:30:06;;;;;;;2.35;1.73;;;22.20;99.90;;;;;;10607906;27;20643;-88
2022/07/29 07:35:10;;;;;;;3.65;1.73;;;22.50;99.90;;;;;;10626148;27;20269;-88
2022/07/29 07:40:13;;;;;;;1.88;1.77;;;22.60;99.90;;;;;;10607005;27;20262;-88
2022/07/29 07:45:20;;;;;;;2.10;1.83;;;22.60;99.90;;;;;;10609621;27;20237;-88
2022/07/29 07:50:23;;;;;;;2.47;1.70;;;22.60;99.90;;;;;;10607737;27;20788;-88
2022/07/29 07:55:26;;;;;;;2.30;1.80;;;22.60;99.90;;;;;;10624847;27;20196;-87
2022/07/29 08:00:28;;;;;;;2.22;1.60;;;22.60;99.90;;;;;;10606889;27;20608;-88
2022/07/29 08:05:32;;;;;;;2.58;1.80;;;22.70;99.90;;;;;;10624780;27;20188;-88
2022/07/29 08:10:55;;;;;;;2.35;1.60;;;22.70;99.90;;;;;;10623871;27;20211;-88
2022/07/29 08:16:10;;;;;;;5.95;2.60;;;22.80;99.90;;;;;;10624582;27;20204;-88
2022/07/29 08:21:14;;;;;;;2.83;1.80;;;22.80;99.90;;;;;;10623947;27;20569;-88
2022/07/29 08:26:16;;;;;;;3.65;2.00;;;22.80;99.90;;;;;;10623589;27;20272;-88
2022/07/29 08:31:19;;;;;;;4.13;1.88;;;22.90;99.90;;;;;;10604464;27;20232;-88
2022/07/29 08:36:21;;;;;;;2.67;2.17;;;22.80;99.90;;;;;;10605221;27;20192;-88
2022/07/29 08:41:24;;;;;;;3.75;1.80;;;22.80;99.90;;;;;;10623603;27;20566;-88
2022/07/29 08:46:27;;;;;;;2.35;1.60;;;22.80;99.90;;;;;;10623452;28;20189;-88
2022/07/29 08:51:30;;;;;;;1.80;1.67;;;22.80;99.90;;;;;;10605024;28;20280;-88
2022/07/29 08:56:33;;;;;;;3.35;1.73;;;22.80;99.90;;;;;;10623026;28;20192;-88
2022/07/29 09:01:38;;;;;;;2.10;1.90;;;22.80;99.90;;;;;;10604091;28;20201;-87
2022/07/29 09:06:51;;;;;;;1.90;1.80;;;22.80;99.90;;;;;;10604524;28;20200;-88
2022/07/29 09:11:53;;;;;;;2.33;1.90;;;22.70;99.90;;;;;;10622885;28;20570;-88
2022/07/29 09:16:56;;;;;;;2.53;1.58;;;22.80;99.90;;;;;;10604602;28;20188;-88
2022/07/29 09:22:01;;;;;;;2.17;1.50;;;22.90;99.90;;;;;;10607397;27;20242;-88
2022/07/29 09:27:09;;;;;;;2.25;1.50;;;23.00;99.90;;;;;;10631176;27;20248;-88
2022/07/29 09:32:12;;;;;;;3.33;1.77;;;23.00;99.90;;;;;;10595353;27;20273;-88
2022/07/29 09:37:28;;;;;;;6.05;2.35;;;23.10;99.90;;;;;;10612331;27;20189;-88
2022/07/29 09:42:33;;;;;;;4.38;1.80;;;23.10;99.90;;;;;;10630032;27;20610;-88
2022/07/29 09:47:48;;;;;;;2.05;1.85;;;23.20;99.90;;;;;;10611553;27;20196;-88
2022/07/29 09:52:53;;;;;;;1.85;1.67;;;23.30;99.90;;;;;;10611689;27;20260;-88
2022/07/29 09:58:18;;;;;;;3.22;1.60;;;23.20;99.90;;;;;;10629859;27;20196;-88
2022/07/29 10:03:22;;;;;;;7.80;1.65;;;23.30;99.90;;;;;;10611262;27;20196;-88
2022/07/29 10:08:27;;;;;;;4.03;2.35;;;23.20;99.90;;;;;;10629242;27;20606;-88
2022/07/29 10:13:29;;;;;;;1.98;1.67;;;23.30;99.90;;;;;;10629068;27;20645;-88
2022/07/29 10:18:32;;;;;;;2.63;2.28;;;23.20;99.90;;;;;;10628875;27;20229;-88
2022/07/29 10:23:36;;;;;;;2.03;1.83;;;23.20;99.90;;;;;;10609537;27;20665;-88
2022/07/29 10:28:48;;;;;;;2.00;1.90;;;23.20;99.90;;;;;;10609583;27;20673;-88
2022/07/29 10:34:18;;;;;;;4.60;1.60;;;23.10;99.90;;;;;;10627708;27;20228;-88
2022/07/29 10:39:32;;;;;;;1.67;1.58;;;23.10;99.90;;;;;;10592570;27;20630;-89
2022/07/29 10:44:46;;;;;;;2.90;1.73;;;23.40;99.90;;;;;;10627807;27;20192;-87
2022/07/29 10:50:00;;;;;;;1.98;1.88;;;23.50;99.90;;;;;;10608798;27;20637;-87
2022/07/29 10:55:04;;;;;;;1.52;1.33;;;23.40;99.60;;;;;;10609447;27;20193;-88
2022/07/29 11:00:14;;;;;;;2.42;1.70;;;23.40;99.90;;;;;;10627866;27;20248;-88
2022/07/29 11:05:20;;;;;;;3.42;1.50;;;23.60;98.40;;;;;;10608441;27;20248;-88
2022/07/29 11:10:23;;;;;;;3.90;1.83;;;24.20;98.70;;;;;;10607814;27;20241;-88
2022/07/29 11:15:54;;;;;;;1.50;1.35;;;24.40;98.50;;;;;;10626786;27;20600;-88
2022/07/29 11:20:57;;;;;;;2.08;1.33;;;24.50;97.90;;;;;;10626558;27;20233;-88
2022/07/29 11:26:13;;;;;;;5.03;1.80;;;24.30;97.70;;;;;;10626161;27;20200;-88
2022/07/29 11:31:35;;;;;;;3.45;1.42;;;24.60;98.10;;;;;;10608274;27;20380;-88
2022/07/29 11:37:06;;;;;;;1.85;1.48;;;24.60;94.60;;;;;;10606859;27;20605;-88
2022/07/29 11:42:23;;;;;;;2.50;1.75;;;24.70;96.20;;;;;;10607085;27;20200;-87
2022/07/29 11:47:39;;;;;;;3.25;1.67;;;24.80;95.70;;;;;;10605718;27;20200;-88
2022/07/29 11:52:48;;;;;;;2.35;1.85;;;24.70;94.00;;;;;;10625018;27;20253;-88
2022/07/29 11:57:53;;;;;;;2.42;1.73;;;24.70;97.50;;;;;;10624848;27;20188;-88
2022/07/29 12:03:10;;;;;;;3.00;1.92;;;24.60;97.30;;;;;;10608085;27;20196;-88
2022/07/29 12:08:18;;;;;;;2.35;1.63;;;24.60;94.70;;;;;;10606459;27;20564;-88
2022/07/29 12:13:21;;;;;;;2.20;1.77;;;24.90;95.60;;;;;;10624442;27;20772;-88
2022/07/29 12:18:38;;;;;;;2.63;1.70;;;24.70;95.80;;;;;;10608194;27;20601;-89
2022/07/29 12:23:55;;;;;;;3.47;1.27;;;24.60;93.50;;;;;;10623805;27;20192;-88
2022/07/29 12:29:03;;;;;;;6.10;3.15;;;24.90;93.50;;;;;;10605187;27;20241;-88
2022/07/29 12:34:16;;;;;;;3.30;1.60;;;24.90;93.90;;;;;;10624085;27;20587;-88
2022/07/29 12:39:19;;;;;;;3.08;2.45;;;24.20;98.20;;;;;;10605318;27;20200;-88
2022/07/29 12:44:22;;;;;;;14.07;1.77;;;23.80;99.30;;;;;;10623683;27;20245;-88
2022/07/29 12:49:24;;;;;;;4.38;1.90;;;25.00;92.60;;;;;;10623701;28;20549;-88
2022/07/29 12:54:27;;;;;;;3.33;1.58;;;24.50;97.20;;;;;;10604924;28;20573;-88
2022/07/29 12:59:29;;;;;;;2.05;1.95;;;24.20;97.10;;;;;;10612249;27;20323;-88
2022/07/29 13:04:35;;;;;;;3.78;2.15;;;24.20;98.10;;;;;;10612847;27;20245;-88
2022/07/29 13:09:41;;;;;;;5.60;2.08;;;24.60;95.20;;;;;;10631732;27;20192;-88
2022/07/29 13:14:46;;;;;;;2.78;1.73;;;24.70;95.40;;;;;;10613700;27;20214;-87
2022/07/29 13:20:04;;;;;;;2.50;1.83;;;24.10;98.30;;;;;;10632080;27;20192;-88
2022/07/29 13:25:10;;;;;;;7.88;2.00;;;24.60;92.70;;;;;;10612068;27;20280;-88
2022/07/29 13:30:13;;;;;;;4.43;1.60;;;24.80;93.70;;;;;;10612607;27;20220;-88
2022/07/29 13:35:15;;;;;;;8.07;2.30;;;24.70;94.10;;;;;;10612321;27;20246;-87
2022/07/29 13:40:18;;;;;;;9.15;1.70;;;24.30;96.90;;;;;;10612233;27;20632;-88
2022/07/29 13:45:21;;;;;;;1.52;1.38;;;24.60;94.50;;;;;;10630376;27;20261;-87
2022/07/29 13:50:24;;;;;;;3.00;1.63;;;24.40;97.00;;;;;;10630249;27;20216;-87
2022/07/29 13:55:27;;;;;;;2.38;1.80;;;24.00;95.00;;;;;;10630070;27;20225;-87
2022/07/29 14:00:29;;;;;;;4.18;2.28;;;24.60;96.00;;;;;;10629612;27;20200;-87
2022/07/29 14:05:32;;;;;;;1.95;1.77;;;24.40;96.10;;;;;;10611274;27;20200;-88
2022/07/29 14:10:34;;;;;;;4.55;2.03;;;23.90;96.10;;;;;;10592334;27;20266;-87
2022/07/29 14:15:37;;;;;;;1.85;1.75;;;23.80;99.20;;;;;;10629576;27;20189;-88
2022/07/29 14:20:40;;;;;;;3.00;1.65;;;24.20;94.80;;;;;;10610990;27;20564;-88
2022/07/29 14:25:43;;;;;;;3.90;1.92;;;24.50;92.60;;;;;;10610747;27;20253;-88
2022/07/29 14:30:46;;;;;;;3.67;1.70;;;24.90;90.30;;;;;;10592972;27;20227;-88
2022/07/29 14:35:49;;;;;;;8.02;1.92;;;25.20;92.70;;;;;;10628578;27;20200;-88
2022/07/29 14:40:51;;;;;;;6.13;2.15;;;24.70;93.00;;;;;;10628025;27;20729;-88
2022/07/29 14:45:54;;;;;;;5.80;1.88;;;24.50;91.90;;;;;;10627797;27;20533;-88
2022/07/29 14:51:05;;;;;;;8.85;1.92;;;24.50;93.90;;;;;;10610709;27;20626;-88
2022/07/29 14:56:07;;;;;;;2.38;2.10;;;24.50;91.30;;;;;;10627786;27;20196;-87
2022/07/29 15:01:29;;;;;;;2.42;1.73;;;24.90;96.10;;;;;;10627725;27;20245;-88
2022/07/29 15:06:32;;;;;;;1.80;1.70;;;25.00;92.60;;;;;;10627210;27;20200;-87
2022/07/29 15:11:35;;;;;;;7.72;2.20;;;24.80;96.50;;;;;;10608673;27;20238;-88
2022/07/29 15:16:41;;;;;;;1.65;1.52;;;24.80;94.50;;;;;;10626507;27;20189;-88
2022/07/29 15:21:45;;;;;;;5.32;2.00;;;24.70;95.60;;;;;;10626423;27;20559;-88
2022/07/29 15:27:00;;;;;;;2.25;2.05;;;24.50;92.50;;;;;;10610013;27;20635;-88
2022/07/29 15:32:04;;;;;;;3.35;1.55;;;24.40;97.40;;;;;;10625933;27;20265;-88
2022/07/29 15:37:06;;;;;;;2.13;2.00;;;24.30;95.10;;;;;;10625739;27;20237;-89
2022/07/29 15:42:09;;;;;;;1.98;1.80;;;24.50;94.40;;;;;;10625430;27;20581;-88
2022/07/29 15:47:11;;;;;;;4.15;1.70;;;24.30;96.20;;;;;;10606503;27;20204;-88
2022/07/29 15:52:13;;;;;;;3.80;1.88;;;24.40;94.70;;;;;;10606256;27;20233;-88
2022/07/29 15:57:16;;;;;;;4.57;2.03;;;24.40;96.90;;;;;;10606706;27;20250;-88
2022/07/29 16:02:19;;;;;;;3.40;2.90;;;24.40;94.90;;;;;;10605865;27;20328;-88
2022/07/29 16:07:22;;;;;;;8.90;3.58;;;24.40;97.20;;;;;;10624557;27;20606;-88
2022/07/29 16:12:26;;;;;;;13.38;2.75;;;24.50;94.80;;;;;;10624182;27;20261;-88
2022/07/29 16:17:29;;;;;;;17.83;2.13;;;24.50;93.30;;;;;;10624686;27;20192;-88
2022/07/29 16:22:31;;;;;;;2.53;1.88;;;24.50;93.90;;;;;;10624338;27;20563;-87
2022/07/29 16:27:34;;;;;;;1.77;1.63;;;24.70;96.80;;;;;;10605697;27;20196;-88
2022/07/29 16:32:39;;;;;;;1.80;1.70;;;24.40;96.80;;;;;;10623433;27;20294;-88
2022/07/29 16:37:42;;;;;;;2.13;1.67;;;24.50;97.50;;;;;;10624113;27;20221;-88
2022/07/29 16:42:44;;;;;;;2.03;1.77;;;24.30;97.40;;;;;;10623855;27;20203;-88
2022/07/29 16:47:48;;;;;;;2.83;1.70;;;24.20;96.70;;;;;;10604502;28;20204;-88
2022/07/29 16:52:51;;;;;;;2.83;1.90;;;24.20;96.40;;;;;;10604655;28;20245;-88
2022/07/29 16:57:53;;;;;;;2.25;1.85;;;24.10;98.40;;;;;;10623511;28;20245;-88
2022/07/29 17:02:56;;;;;;;5.53;1.95;;;23.80;96.30;;;;;;10605053;28;20222;-88
2022/07/29 17:07:59;;;;;;;13.43;2.67;;;24.00;97.10;;;;;;10605155;28;20197;-88
2022/07/29 17:13:01;;;;;;;16.80;2.13;;;24.20;95.70;;;;;;10603921;28;20208;-88
2022/07/29 17:18:04;;;;;;;2.45;1.85;;;24.20;97.20;;;;;;10603897;28;20552;-88
2022/07/29 17:23:14;;;;;;;5.85;2.00;;;24.00;98.80;;;;;;10603894;28;20607;-88
2022/07/29 17:28:16;;;;;;;1.63;1.50;;;23.90;98.00;;;;;;10622484;28;20249;-87
2022/07/29 17:33:19;;;;;;;1.60;1.50;;;23.80;98.40;;;;;;10586613;28;20232;-88
2022/07/29 17:38:21;;;;;;;1.98;1.83;;;23.80;98.70;;;;;;10586867;28;20196;-88
2022/07/29 17:43:24;;;;;;;6.20;2.33;;;23.60;99.70;;;;;;10606350;27;20212;-88
2022/07/29 17:48:26;;;;;;;8.20;1.75;;;23.50;99.90;;;;;;10612064;27;20196;-87
2022/07/29 17:53:29;;;;;;;3.13;1.98;;;23.40;99.50;;;;;;10611104;27;20249;-88
2022/07/29 17:58:33;;;;;;;2.15;1.95;;;23.30;99.90;;;;;;10611234;27;20200;-88
2022/07/29 18:03:35;;;;;;;4.20;2.17;;;23.20;99.90;;;;;;10593859;27;20729;-88
2022/07/29 18:08:39;;;;;;;2.22;2.03;;;23.00;99.90;;;;;;10611427;27;20244;-88
2022/07/29 18:13:42;;;;;;;4.72;1.73;;;23.00;99.90;;;;;;10610344;27;20224;-88
2022/07/29 18:18:45;;;;;;;2.35;1.80;;;22.90;99.90;;;;;;10611091;27;20672;-88
2022/07/29 18:23:49;;;;;;;4.60;1.80;;;22.80;99.90;;;;;;10610633;27;20192;-88
2022/07/29 18:28:52;;;;;;;1.98;1.60;;;22.70;99.90;;;;;;10610148;27;20222;-88
2022/07/29 18:33:54;;;;;;;4.78;2.20;;;22.60;99.90;;;;;;10628825;27;20262;-88
2022/07/29 18:39:01;;;;;;;1.90;1.80;;;22.50;99.90;;;;;;10628162;27;20197;-88
2022/07/29 18:44:04;;;;;;;2.10;2.00;;;22.40;99.90;;;;;;10628744;27;20200;-88
2022/07/29 18:49:06;;;;;;;3.38;1.73;;;22.30;99.90;;;;;;10628025;27;20201;-88
2022/07/29 18:54:09;;;;;;;3.50;1.88;;;22.20;99.90;;;;;;10627035;27;20216;-88
2022/07/29 18:59:15;;;;;;;5.30;2.08;;;22.10;99.90;;;;;;10609127;27;20196;-88
2022/07/29 19:04:18;;;;;;;2.47;2.28;;;21.70;99.90;;;;;;10609506;27;20556;-88
2022/07/29 19:09:20;;;;;;;5.10;2.05;;;21.70;99.90;;;;;;10609354;27;20196;-88
2022/07/29 19:14:23;;;;;;;1.75;1.65;;;21.80;99.90;;;;;;10626605;27;20216;-88
2022/07/29 19:19:25;;;;;;;2.22;2.03;;;21.70;99.90;;;;;;10608348;27;20188;-88
2022/07/29 19:24:28;;;;;;;2.58;1.95;;;21.70;99.90;;;;;;10626294;27;20196;-88
2022/07/29 19:29:31;;;;;;;6.10;2.08;;;21.60;99.90;;;;;;10626042;27;20260;-88
2022/07/29 19:34:34;;;;;;;2.42;2.17;;;21.70;99.90;;;;;;10590329;27;20277;-89
2022/07/29 19:39:36;;;;;;;2.20;2.00;;;21.60;99.90;;;;;;10607415;27;20193;-88
2022/07/29 19:44:38;;;;;;;2.25;1.98;;;21.60;99.90;;;;;;10625448;27;20602;-88
2022/07/29 19:49:41;;;;;;;2.03;1.92;;;21.60;99.90;;;;;;10607291;27;20564;-89
2022/07/29 19:54:44;;;;;;;2.40;2.20;;;21.60;99.90;;;;;;10627482;27;20246;-88
2022/07/29 19:59:46;;;;;;;2.90;2.70;;;21.60;99.90;;;;;;10614648;27;20619;-88
2022/07/29 20:04:49;;;;;;;2.05;1.95;;;21.60;99.90;;;;;;10616259;27;20225;-89
2022/07/29 20:09:54;;;;;;;3.72;2.13;;;21.70;99.90;;;;;;10638302;27;20196;-89
2022/07/29 20:14:57;;;;;;;2.28;2.08;;;21.60;99.90;;;;;;10632832;27;20220;-89
2022/07/29 20:19:59;;;;;;;2.15;2.00;;;21.60;99.90;;;;;;10610595;27;20188;-87
2022/07/29 20:25:04;;;;;;;1.95;1.85;;;21.60;99.90;;;;;;10608708;27;20257;-87
2022/07/29 20:30:07;;;;;;;2.00;1.67;;;21.60;99.90;;;;;;10609416;27;20233;-88
2022/07/29 20:35:12;;;;;;;2.40;2.20;;;21.60;99.90;;;;;;10626218;27;20594;-88
2022/07/29 20:40:15;;;;;;;2.25;2.13;;;21.60;99.90;;;;;;10607595;27;20237;-88
2022/07/29 20:45:18;;;;;;;2.60;2.40;;;21.60;99.90;;;;;;10607738;27;20241;-88
2022/07/29 20:50:22;;;;;;;2.88;2.33;;;21.60;99.90;;;;;;10607728;28;20608;-89
2022/07/29 20:55:25;;;;;;;1.95;1.77;;;21.50;99.90;;;;;;10606951;28;20224;-88
2022/07/29 21:00:28;;;;;;;3.22;1.85;;;21.50;99.90;;;;;;10607732;28;20527;-87
2022/07/29 21:05:30;;;;;;;2.10;1.90;;;21.50;99.90;;;;;;10626257;28;20196;-88
2022/07/29 21:10:33;;;;;;;2.35;2.15;;;21.50;99.90;;;;;;10625247;28;20253;-88
2022/07/29 21:15:35;;;;;;;2.17;1.98;;;21.50;99.90;;;;;;10624344;28;20216;-88
2022/07/29 21:20:38;;;;;;;2.15;2.00;;;21.50;99.90;;;;;;10614292;27;20188;-88
2022/07/29 21:25:40;;;;;;;1.83;1.73;;;21.50;99.90;;;;;;10596878;27;20248;-88
2022/07/29 21:30:43;;;;;;;1.98;1.77;;;21.50;99.90;;;;;;10632279;27;20539;-88
2022/07/29 21:35:45;;;;;;;4.43;2.47;;;21.50;99.90;;;;;;10596971;27;20224;-88
2022/07/29 21:41:10;;;;;;;2.05;1.85;;;21.40;99.90;;;;;;10632311;27;20189;-88
2022/07/29 21:46:15;;;;;;;4.10;2.17;;;21.40;99.90;;;;;;10613085;27;20242;-88
2022/07/29 21:51:17;;;;;;;3.88;2.60;;;21.50;99.90;;;;;;10631365;27;20234;-88
2022/07/29 21:56:20;;;;;;;2.38;2.17;;;21.40;99.90;;;;;;10612964;27;20216;-88
2022/07/29 22:01:25;;;;;;;2.25;2.05;;;21.40;99.90;;;;;;10612326;27;20569;-88
2022/07/29 22:06:28;;;;;;;1.92;1.83;;;21.50;99.90;;;;;;10629453;27;20197;-88
2022/07/29 22:11:31;;;;;;;2.40;1.90;;;21.40;99.90;;;;;;10610294;27;20212;-88
2022/07/29 22:16:33;;;;;;;1.98;1.85;;;21.40;99.90;;;;;;10628992;27;20189;-88
2022/07/29 22:21:36;;;;;;;2.20;2.10;;;21.40;99.90;;;;;;10610897;27;20217;-88
2022/07/29 22:26:39;;;;;;;2.17;1.98;;;21.40;99.90;;;;;;10628684;27;20249;-88
2022/07/29 22:31:41;;;;;;;2.10;1.90;;;21.40;99.90;;;;;;10628165;27;20224;-88
2022/07/29 22:36:44;;;;;;;4.88;2.30;;;21.40;99.90;;;;;;10610275;27;20583;-88
2022/07/29 22:41:47;;;;;;;2.22;1.95;;;21.40;99.90;;;;;;10610072;27;20248;-88
2022/07/29 22:46:49;;;;;;;5.05;2.55;;;21.20;99.90;;;;;;10609889;27;20189;-88
2022/07/29 22:51:51;;;;;;;3.03;2.25;;;21.30;99.90;;;;;;10627718;27;20233;-88
2022/07/29 22:56:54;;;;;;;2.30;2.10;;;21.30;99.90;;;;;;10627394;27;20196;-88
2022/07/29 23:01:56;;;;;;;2.03;1.92;;;21.40;99.90;;;;;;10609541;27;20270;-88
2022/07/29 23:06:59;;;;;;;2.55;2.30;;;21.40;99.90;;;;;;10627089;27;20192;-88
2022/07/29 23:12:02;;;;;;;2.72;2.03;;;21.50;99.90;;;;;;10608365;27;20200;-88
2022/07/29 23:17:05;;;;;;;4.53;1.50;;;21.50;99.90;;;;;;10626829;27;20241;-88
2022/07/29 23:22:08;;;;;;;2.55;1.90;;;21.40;99.90;;;;;;10626723;27;20261;-88
2022/07/29 23:27:10;;;;;;;2.10;1.85;;;21.40;99.90;;;;;;10608140;27;20196;-88
2022/07/29 23:32:13;;;;;;;3.47;1.73;;;21.40;99.90;;;;;;10626227;27;20220;-88
2022/07/29 23:37:15;;;;;;;2.03;1.83;;;21.40;99.90;;;;;;10607747;27;20185;-88
2022/07/29 23:42:18;;;;;;;4.05;1.83;;;21.30;99.90;;;;;;10606659;27;20200;-88
2022/07/29 23:47:20;;;;;;;2.13;1.92;;;21.30;99.90;;;;;;10606643;27;20233;-88
2022/07/29 23:52:23;;;;;;;2.30;2.10;;;21.40;99.90;;;;;;10589839;27;20238;-88
2022/07/29 23:57:26;;;;;;;2.38;2.17;;;21.30;99.90;;;;;;10606238;27;20196;-88
